createdAt,value
2017-03-29T00:00:07.831Z,1014.44
2017-03-29T00:00:48.400Z,1014.49
2017-03-29T00:01:28.966Z,1014.5
2017-03-29T00:02:09.534Z,1014.52
2017-03-29T00:02:50.158Z,1014.51
2017-03-29T00:03:30.718Z,1014.52
2017-03-29T00:04:11.304Z,1014.57
2017-03-29T00:04:51.888Z,1014.52
2017-03-29T00:05:32.470Z,1014.56
2017-03-29T00:06:13.029Z,1014.55
2017-03-29T00:06:53.589Z,1014.53
2017-03-29T00:07:34.183Z,1014.53
2017-03-29T00:08:14.775Z,1014.57
2017-03-29T00:08:55.344Z,1014.57
2017-03-29T00:09:35.908Z,1014.57
2017-03-29T00:10:16.481Z,1014.58
2017-03-29T00:10:57.066Z,1014.57
2017-03-29T00:11:37.631Z,1014.57
2017-03-29T00:12:18.206Z,1014.55
2017-03-29T00:12:58.773Z,1014.53
2017-03-29T00:13:39.345Z,1014.54
2017-03-29T00:14:19.947Z,1014.55
2017-03-29T00:15:07.487Z,1014.55
2017-03-29T00:15:48.096Z,1014.53
2017-03-29T00:16:28.660Z,1014.53
2017-03-29T00:17:09.245Z,1014.55
2017-03-29T00:17:49.819Z,1014.54
2017-03-29T00:18:30.398Z,1014.53
2017-03-29T00:19:10.998Z,1014.54
2017-03-29T00:19:51.578Z,1014.61
2017-03-29T00:20:32.150Z,1014.56
2017-03-29T00:21:12.728Z,1014.63
2017-03-29T00:21:53.290Z,1014.58
2017-03-29T00:22:33.857Z,1014.55
2017-03-29T00:23:14.433Z,1014.58
2017-03-29T00:23:55.013Z,1014.58
2017-03-29T00:24:35.618Z,1014.56
2017-03-29T00:25:16.187Z,1014.57
2017-03-29T00:25:56.760Z,1014.57
2017-03-29T00:26:37.326Z,1014.61
2017-03-29T00:27:17.913Z,1014.59
2017-03-29T00:27:58.515Z,1014.57
2017-03-29T00:28:39.092Z,1014.6
2017-03-29T00:29:19.673Z,1014.6
2017-03-29T00:30:00.261Z,1014.61
2017-03-29T00:30:40.832Z,1014.62
2017-03-29T00:31:21.432Z,1014.62
2017-03-29T00:32:02.049Z,1014.64
2017-03-29T00:32:42.639Z,1014.61
2017-03-29T00:33:23.227Z,1014.59
2017-03-29T00:34:03.806Z,1014.58
2017-03-29T00:34:44.377Z,1014.61
2017-03-29T00:35:24.941Z,1014.59
2017-03-29T00:36:05.556Z,1014.62
2017-03-29T00:36:46.132Z,1014.63
2017-03-29T00:37:26.725Z,1014.62
2017-03-29T00:38:07.298Z,1014.64
2017-03-29T00:38:47.864Z,1014.64
2017-03-29T00:39:28.438Z,1014.64
2017-03-29T00:40:09.015Z,1014.64
2017-03-29T00:40:49.641Z,1014.61
2017-03-29T00:41:30.258Z,1014.62
2017-03-29T00:42:10.827Z,1014.62
2017-03-29T00:42:51.429Z,1014.66
2017-03-29T00:43:32.019Z,1014.66
2017-03-29T00:44:12.575Z,1014.67
2017-03-29T00:44:53.169Z,1014.67
2017-03-29T00:45:33.775Z,1014.64
2017-03-29T00:46:14.315Z,1014.65
2017-03-29T00:46:54.898Z,1014.61
2017-03-29T00:47:35.478Z,1014.67
2017-03-29T00:48:16.066Z,1014.68
2017-03-29T00:48:56.645Z,1014.7
2017-03-29T00:49:37.223Z,1014.66
2017-03-29T00:50:17.806Z,1014.73
2017-03-29T00:50:58.390Z,1014.66
2017-03-29T00:51:38.965Z,1014.66
2017-03-29T00:52:19.541Z,1014.66
2017-03-29T00:53:00.113Z,1014.68
2017-03-29T00:53:40.698Z,1014.64
2017-03-29T00:54:21.283Z,1014.65
2017-03-29T00:55:01.911Z,1014.65
2017-03-29T00:55:42.490Z,1014.63
2017-03-29T00:56:23.064Z,1014.6
2017-03-29T00:57:03.626Z,1014.6
2017-03-29T00:57:44.211Z,1014.58
2017-03-29T00:58:24.795Z,1014.58
2017-03-29T00:59:05.407Z,1014.56
2017-03-29T00:59:45.965Z,1014.58
2017-03-29T01:00:26.586Z,1014.59
2017-03-29T01:01:07.152Z,1014.58
2017-03-29T01:01:47.732Z,1014.54
2017-03-29T01:02:28.298Z,1014.58
2017-03-29T01:03:08.872Z,1014.57
2017-03-29T01:03:49.441Z,1014.58
2017-03-29T01:04:30.023Z,1014.57
2017-03-29T01:05:10.617Z,1014.55
2017-03-29T01:05:51.190Z,1014.52
2017-03-29T01:06:31.754Z,1014.49
2017-03-29T01:07:12.323Z,1014.51
2017-03-29T01:07:52.895Z,1014.51
2017-03-29T01:08:33.462Z,1014.51
2017-03-29T01:09:14.035Z,1014.5
2017-03-29T01:09:54.605Z,1014.46
2017-03-29T01:10:35.197Z,1014.45
2017-03-29T01:11:15.758Z,1014.46
2017-03-29T01:11:56.341Z,1014.45
2017-03-29T01:12:36.914Z,1014.43
2017-03-29T01:13:17.491Z,1014.42
2017-03-29T01:13:58.059Z,1014.45
2017-03-29T01:14:38.646Z,1014.41
2017-03-29T01:15:19.218Z,1014.43
2017-03-29T01:15:59.806Z,1014.44
2017-03-29T01:16:40.400Z,1014.42
2017-03-29T01:17:20.974Z,1014.42
2017-03-29T01:18:01.598Z,1014.39
2017-03-29T01:18:42.167Z,1014.4
2017-03-29T01:19:22.824Z,1014.37
2017-03-29T01:20:03.343Z,1014.39
2017-03-29T01:20:43.943Z,1014.39
2017-03-29T01:21:24.527Z,1014.38
2017-03-29T01:22:05.131Z,1014.39
2017-03-29T01:22:45.753Z,1014.36
2017-03-29T01:23:26.311Z,1014.35
2017-03-29T01:24:06.898Z,1014.37
2017-03-29T01:24:47.478Z,1014.37
2017-03-29T01:25:28.046Z,1014.33
2017-03-29T01:26:08.665Z,1014.35
2017-03-29T01:26:49.272Z,1014.32
2017-03-29T01:27:29.836Z,1014.31
2017-03-29T01:28:10.406Z,1014.36
2017-03-29T01:28:50.976Z,1014.36
2017-03-29T01:29:31.558Z,1014.33
2017-03-29T01:30:12.122Z,1014.32
2017-03-29T01:30:52.701Z,1014.35
2017-03-29T01:31:33.286Z,1014.36
2017-03-29T01:32:13.848Z,1014.32
2017-03-29T01:32:54.432Z,1014.33
2017-03-29T01:33:35.004Z,1014.37
2017-03-29T01:34:15.577Z,1014.32
2017-03-29T01:34:56.145Z,1014.3
2017-03-29T01:35:36.707Z,1014.32
2017-03-29T01:36:17.281Z,1014.32
2017-03-29T01:36:57.855Z,1014.36
2017-03-29T01:37:38.418Z,1014.33
2017-03-29T01:38:18.977Z,1014.29
2017-03-29T01:38:59.571Z,1014.32
2017-03-29T01:39:40.161Z,1014.31
2017-03-29T01:40:20.773Z,1014.25
2017-03-29T01:41:01.356Z,1014.27
2017-03-29T01:41:41.943Z,1014.24
2017-03-29T01:42:22.500Z,1014.26
2017-03-29T01:43:03.084Z,1014.23
2017-03-29T01:43:43.724Z,1014.25
2017-03-29T01:44:24.265Z,1014.26
2017-03-29T01:45:04.838Z,1014.29
2017-03-29T01:45:45.441Z,1014.23
2017-03-29T01:46:26.012Z,1014.28
2017-03-29T01:47:06.575Z,1014.23
2017-03-29T01:47:47.210Z,1014.26
2017-03-29T01:48:27.780Z,1014.22
2017-03-29T01:49:08.355Z,1014.21
2017-03-29T01:49:48.946Z,1014.2
2017-03-29T01:50:29.527Z,1014.18
2017-03-29T01:51:10.100Z,1014.17
2017-03-29T01:51:50.662Z,1014.19
2017-03-29T01:52:31.254Z,1014.18
2017-03-29T01:53:11.853Z,1014.24
2017-03-29T01:53:52.434Z,1014.23
2017-03-29T01:54:33.023Z,1014.19
2017-03-29T01:55:13.615Z,1014.22
2017-03-29T01:55:54.193Z,1014.2
2017-03-29T01:56:34.787Z,1014.2
2017-03-29T01:57:15.353Z,1014.21
2017-03-29T01:57:55.915Z,1014.2
2017-03-29T01:58:36.493Z,1014.24
2017-03-29T01:59:17.106Z,1014.23
2017-03-29T01:59:57.670Z,1014.23
2017-03-29T02:00:38.240Z,1014.26
2017-03-29T02:01:18.816Z,1014.27
2017-03-29T02:01:59.389Z,1014.27
2017-03-29T02:02:39.957Z,1014.27
2017-03-29T02:03:20.558Z,1014.27
2017-03-29T02:04:01.157Z,1014.32
2017-03-29T02:04:41.728Z,1014.27
2017-03-29T02:05:22.280Z,1014.25
2017-03-29T02:06:02.864Z,1014.28
2017-03-29T02:06:43.441Z,1014.29
2017-03-29T02:07:24.018Z,1014.27
2017-03-29T02:08:04.602Z,1014.25
2017-03-29T02:08:45.160Z,1014.3
2017-03-29T02:09:25.723Z,1014.23
2017-03-29T02:10:06.305Z,1014.25
2017-03-29T02:10:46.906Z,1014.26
2017-03-29T02:11:27.471Z,1014.26
2017-03-29T02:12:08.066Z,1014.23
2017-03-29T02:12:48.647Z,1014.28
2017-03-29T02:13:29.233Z,1014.28
2017-03-29T02:14:09.823Z,1014.27
2017-03-29T02:14:50.400Z,1014.29
2017-03-29T02:15:30.977Z,1014.35
2017-03-29T02:16:11.588Z,1014.31
2017-03-29T02:16:52.189Z,1014.35
2017-03-29T02:17:32.779Z,1014.37
2017-03-29T02:18:13.340Z,1014.38
2017-03-29T02:18:53.931Z,1014.41
2017-03-29T02:19:34.516Z,1014.42
2017-03-29T02:20:15.081Z,1014.41
2017-03-29T02:20:55.652Z,1014.4
2017-03-29T02:21:36.242Z,1014.4
2017-03-29T02:22:16.836Z,1014.4
2017-03-29T02:22:57.418Z,1014.37
2017-03-29T02:23:38.036Z,1014.36
2017-03-29T02:24:18.611Z,1014.39
2017-03-29T02:24:59.184Z,1014.39
2017-03-29T02:25:39.778Z,1014.37
2017-03-29T02:26:20.353Z,1014.4
2017-03-29T02:27:00.942Z,1014.39
2017-03-29T02:27:41.500Z,1014.44
2017-03-29T02:28:22.094Z,1014.46
2017-03-29T02:29:02.706Z,1014.43
2017-03-29T02:29:43.288Z,1014.42
2017-03-29T02:30:23.880Z,1014.41
2017-03-29T02:31:04.460Z,1014.41
2017-03-29T02:31:45.032Z,1014.39
2017-03-29T02:32:25.612Z,1014.39
2017-03-29T02:33:06.195Z,1014.39
2017-03-29T02:33:46.764Z,1014.37
2017-03-29T02:34:27.346Z,1014.33
2017-03-29T02:35:07.909Z,1014.34
2017-03-29T02:35:48.484Z,1014.29
2017-03-29T02:36:29.058Z,1014.29
2017-03-29T02:37:09.621Z,1014.27
2017-03-29T02:37:50.201Z,1014.27
2017-03-29T02:38:30.786Z,1014.26
2017-03-29T02:39:11.376Z,1014.26
2017-03-29T02:39:51.939Z,1014.27
2017-03-29T02:40:32.507Z,1014.28
2017-03-29T02:41:13.099Z,1014.26
2017-03-29T02:41:53.684Z,1014.26
2017-03-29T02:42:34.259Z,1014.23
2017-03-29T02:43:14.824Z,1014.23
2017-03-29T02:43:55.425Z,1014.26
2017-03-29T02:44:35.985Z,1014.25
2017-03-29T02:45:16.552Z,1014.27
2017-03-29T02:45:57.126Z,1014.32
2017-03-29T02:46:37.693Z,1014.27
2017-03-29T02:47:18.276Z,1014.32
2017-03-29T02:47:58.849Z,1014.28
2017-03-29T02:48:39.412Z,1014.24
2017-03-29T02:49:19.985Z,1014.25
2017-03-29T02:50:00.548Z,1014.25
2017-03-29T02:50:41.121Z,1014.22
2017-03-29T02:51:21.700Z,1014.19
2017-03-29T02:52:02.296Z,1014.2
2017-03-29T02:52:42.941Z,1014.19
2017-03-29T02:53:23.571Z,1014.14
2017-03-29T02:54:04.268Z,1014.13
2017-03-29T02:54:44.864Z,1014.12
2017-03-29T02:55:25.450Z,1014.1
2017-03-29T02:56:06.024Z,1014.12
2017-03-29T02:56:46.632Z,1014.15
2017-03-29T02:57:27.318Z,1014.12
2017-03-29T02:58:07.900Z,1014.15
2017-03-29T02:58:48.469Z,1014.17
2017-03-29T02:59:29.049Z,1014.15
2017-03-29T03:00:09.646Z,1014.1
2017-03-29T03:00:50.263Z,1014.1
2017-03-29T03:01:30.856Z,1014.12
2017-03-29T03:02:11.448Z,1014.12
2017-03-29T03:02:52.040Z,1014.11
2017-03-29T03:03:32.617Z,1014.09
2017-03-29T03:04:13.197Z,1014.05
2017-03-29T03:04:53.764Z,1014.09
2017-03-29T03:05:34.340Z,1014.13
2017-03-29T03:06:14.916Z,1014.12
2017-03-29T03:06:55.540Z,1014.05
2017-03-29T03:07:36.127Z,1014.11
2017-03-29T03:08:16.708Z,1014.09
2017-03-29T03:08:57.272Z,1014.13
2017-03-29T03:09:37.858Z,1014.11
2017-03-29T03:10:18.486Z,1014.08
2017-03-29T03:10:59.055Z,1014.05
2017-03-29T03:11:39.629Z,1014.05
2017-03-29T03:12:20.195Z,1014.07
2017-03-29T03:13:00.866Z,1014.03
2017-03-29T03:13:41.438Z,1014.06
2017-03-29T03:14:22.031Z,1014.02
2017-03-29T03:15:02.630Z,1014.04
2017-03-29T03:15:43.217Z,1014.02
2017-03-29T03:16:23.793Z,1014.04
2017-03-29T03:17:04.383Z,1014.05
2017-03-29T03:17:44.951Z,1014.02
2017-03-29T03:18:25.532Z,1014.08
2017-03-29T03:19:06.095Z,1014.02
2017-03-29T03:19:46.673Z,1014.02
2017-03-29T03:20:27.267Z,1013.99
2017-03-29T03:21:07.884Z,1014
2017-03-29T03:21:48.452Z,1013.95
2017-03-29T03:22:29.076Z,1013.97
2017-03-29T03:23:09.662Z,1013.96
2017-03-29T03:23:50.253Z,1013.95
2017-03-29T03:24:30.843Z,1013.95
2017-03-29T03:25:11.415Z,1013.95
2017-03-29T03:25:51.983Z,1013.99
2017-03-29T03:26:32.566Z,1013.98
2017-03-29T03:27:13.163Z,1014.01
2017-03-29T03:27:53.772Z,1014.05
2017-03-29T03:28:34.361Z,1014.01
2017-03-29T03:29:14.931Z,1014
2017-03-29T03:29:55.508Z,1014.01
2017-03-29T03:30:36.077Z,1014.01
2017-03-29T03:31:16.652Z,1013.94
2017-03-29T03:31:57.234Z,1013.91
2017-03-29T03:32:37.810Z,1013.95
2017-03-29T03:33:18.377Z,1013.95
2017-03-29T03:33:58.971Z,1013.99
2017-03-29T03:34:39.545Z,1013.96
2017-03-29T03:35:20.131Z,1013.94
2017-03-29T03:36:00.773Z,1013.97
2017-03-29T03:36:41.342Z,1013.98
2017-03-29T03:37:21.955Z,1013.98
2017-03-29T03:38:02.530Z,1014
2017-03-29T03:38:43.099Z,1013.99
2017-03-29T03:39:23.692Z,1014
2017-03-29T03:40:04.290Z,1014.01
2017-03-29T03:40:44.850Z,1013.96
2017-03-29T03:41:25.416Z,1013.96
2017-03-29T03:42:05.984Z,1013.97
2017-03-29T03:42:46.562Z,1013.94
2017-03-29T03:43:27.144Z,1013.95
2017-03-29T03:44:07.743Z,1013.96
2017-03-29T03:44:48.311Z,1013.98
2017-03-29T03:45:28.874Z,1013.99
2017-03-29T03:46:09.515Z,1013.98
2017-03-29T03:46:54.611Z,1013.98
2017-03-29T03:47:35.236Z,1014.01
2017-03-29T03:48:15.812Z,1014.01
2017-03-29T03:48:56.391Z,1014.04
2017-03-29T03:49:36.949Z,1014.09
2017-03-29T03:50:17.538Z,1014.11
2017-03-29T03:50:58.112Z,1014.08
2017-03-29T03:51:38.669Z,1014.1
2017-03-29T03:52:19.241Z,1014.09
2017-03-29T03:52:59.813Z,1014.05
2017-03-29T03:53:40.392Z,1014.07
2017-03-29T03:54:21.008Z,1014.07
2017-03-29T03:55:01.595Z,1014.09
2017-03-29T03:55:42.168Z,1014.1
2017-03-29T03:56:22.738Z,1014.05
2017-03-29T03:57:03.333Z,1014.04
2017-03-29T03:57:43.894Z,1014.04
2017-03-29T03:58:24.465Z,1014.03
2017-03-29T03:59:05.045Z,1014.06
2017-03-29T03:59:45.623Z,1014.03
2017-03-29T04:00:26.230Z,1014.1
2017-03-29T04:01:06.810Z,1014.1
2017-03-29T04:01:47.386Z,1014.11
2017-03-29T04:02:27.979Z,1014.1
2017-03-29T04:03:08.553Z,1014.1
2017-03-29T04:03:49.137Z,1014.09
2017-03-29T04:04:29.723Z,1014.1
2017-03-29T04:05:10.328Z,1014.07
2017-03-29T04:05:50.902Z,1014.06
2017-03-29T04:06:31.464Z,1014.1
2017-03-29T04:07:12.031Z,1014.06
2017-03-29T04:07:52.609Z,1014.09
2017-03-29T04:08:33.171Z,1014.07
2017-03-29T04:09:13.742Z,1014.09
2017-03-29T04:09:54.342Z,1014.07
2017-03-29T04:10:34.941Z,1014.08
2017-03-29T04:11:15.518Z,1014.11
2017-03-29T04:11:56.095Z,1014.11
2017-03-29T04:12:36.691Z,1014.12
2017-03-29T04:13:17.262Z,1014.12
2017-03-29T04:13:57.880Z,1014.15
2017-03-29T04:14:38.449Z,1014.1
2017-03-29T04:15:19.025Z,1014.13
2017-03-29T04:15:59.605Z,1014.14
2017-03-29T04:16:40.205Z,1014.12
2017-03-29T04:17:20.797Z,1014.09
2017-03-29T04:18:01.368Z,1014.1
2017-03-29T04:18:41.951Z,1014.1
2017-03-29T04:19:22.558Z,1014.08
2017-03-29T04:20:03.146Z,1014.07
2017-03-29T04:20:43.701Z,1014.05
2017-03-29T04:21:24.267Z,1014.07
2017-03-29T04:22:04.873Z,1014.05
2017-03-29T04:22:45.454Z,1014.05
2017-03-29T04:23:26.042Z,1014.08
2017-03-29T04:24:06.616Z,1014.1
2017-03-29T04:24:47.225Z,1014.09
2017-03-29T04:25:27.798Z,1014.1
2017-03-29T04:26:08.394Z,1014.04
2017-03-29T04:26:48.973Z,1014.05
2017-03-29T04:27:29.539Z,1014.09
2017-03-29T04:28:10.099Z,1014.06
2017-03-29T04:28:50.683Z,1014.07
2017-03-29T04:29:31.295Z,1014.09
2017-03-29T04:30:11.891Z,1014.13
2017-03-29T04:30:52.487Z,1014.14
2017-03-29T04:31:33.122Z,1014.12
2017-03-29T04:32:13.699Z,1014.17
2017-03-29T04:32:54.278Z,1014.09
2017-03-29T04:33:34.848Z,1014.09
2017-03-29T04:34:15.421Z,1014.12
2017-03-29T04:34:56.007Z,1014.12
2017-03-29T04:35:36.594Z,1014.13
2017-03-29T04:36:17.163Z,1014.15
2017-03-29T04:36:57.734Z,1014.13
2017-03-29T04:37:38.307Z,1014.13
2017-03-29T04:38:18.874Z,1014.13
2017-03-29T04:38:59.448Z,1014.13
2017-03-29T04:39:40.046Z,1014.14
2017-03-29T04:40:20.649Z,1014.11
2017-03-29T04:41:01.220Z,1014.12
2017-03-29T04:41:41.798Z,1014.09
2017-03-29T04:42:22.370Z,1014.07
2017-03-29T04:43:02.963Z,1014.08
2017-03-29T04:43:43.537Z,1013.99
2017-03-29T04:44:24.117Z,1013.97
2017-03-29T04:45:04.725Z,1013.94
2017-03-29T04:45:45.291Z,1013.97
2017-03-29T04:46:25.877Z,1014.03
2017-03-29T04:47:06.471Z,1014.08
2017-03-29T04:47:47.075Z,1014.12
2017-03-29T04:48:27.684Z,1014.1
2017-03-29T04:49:08.256Z,1014.12
2017-03-29T04:49:48.855Z,1014.12
2017-03-29T04:50:29.415Z,1014.16
2017-03-29T04:51:10.031Z,1014.14
2017-03-29T04:51:50.632Z,1014.19
2017-03-29T04:52:31.222Z,1014.18
2017-03-29T04:53:11.809Z,1014.15
2017-03-29T04:53:52.366Z,1014.12
2017-03-29T04:54:32.950Z,1014.12
2017-03-29T04:55:13.510Z,1014.04
2017-03-29T04:55:54.069Z,1014.07
2017-03-29T04:56:34.657Z,1014.07
2017-03-29T04:57:15.231Z,1014.1
2017-03-29T04:57:55.820Z,1014.06
2017-03-29T04:58:36.414Z,1014.06
2017-03-29T04:59:16.987Z,1014.04
2017-03-29T04:59:57.583Z,1014.02
2017-03-29T05:00:38.159Z,1014.04
2017-03-29T05:01:18.788Z,1014
2017-03-29T05:01:59.360Z,1014.05
2017-03-29T05:02:39.927Z,1013.97
2017-03-29T05:03:20.492Z,1014.01
2017-03-29T05:04:01.088Z,1014.01
2017-03-29T05:04:41.658Z,1014.05
2017-03-29T05:05:22.230Z,1014.12
2017-03-29T05:06:02.820Z,1014.14
2017-03-29T05:06:43.392Z,1014.18
2017-03-29T05:07:24.019Z,1014.2
2017-03-29T05:08:04.561Z,1014.24
2017-03-29T05:08:45.160Z,1014.24
2017-03-29T05:09:25.758Z,1014.24
2017-03-29T05:10:06.331Z,1014.23
2017-03-29T05:10:46.906Z,1014.25
2017-03-29T05:11:27.500Z,1014.25
2017-03-29T05:12:08.131Z,1014.22
2017-03-29T05:12:48.686Z,1014.28
2017-03-29T05:13:29.304Z,1014.24
2017-03-29T05:14:09.916Z,1014.24
2017-03-29T05:14:50.538Z,1014.22
2017-03-29T05:15:31.112Z,1014.24
2017-03-29T05:16:11.751Z,1014.24
2017-03-29T05:16:52.312Z,1014.29
2017-03-29T05:17:32.898Z,1014.29
2017-03-29T05:18:13.480Z,1014.3
2017-03-29T05:18:54.077Z,1014.32
2017-03-29T05:19:34.730Z,1014.28
2017-03-29T05:20:15.317Z,1014.29
2017-03-29T05:20:55.887Z,1014.26
2017-03-29T05:21:36.508Z,1014.28
2017-03-29T05:22:17.108Z,1014.29
2017-03-29T05:22:57.723Z,1014.3
2017-03-29T05:23:38.371Z,1014.34
2017-03-29T05:24:18.971Z,1014.36
2017-03-29T05:24:59.576Z,1014.39
2017-03-29T05:25:40.151Z,1014.37
2017-03-29T05:26:20.740Z,1014.34
2017-03-29T05:27:01.336Z,1014.36
2017-03-29T05:27:41.938Z,1014.32
2017-03-29T05:28:22.495Z,1014.32
2017-03-29T05:29:03.083Z,1014.33
2017-03-29T05:29:43.663Z,1014.38
2017-03-29T05:30:24.256Z,1014.34
2017-03-29T05:31:04.872Z,1014.38
2017-03-29T05:31:45.465Z,1014.37
2017-03-29T05:32:26.059Z,1014.39
2017-03-29T05:33:06.630Z,1014.38
2017-03-29T05:33:47.209Z,1014.41
2017-03-29T05:34:27.776Z,1014.47
2017-03-29T05:35:08.354Z,1014.42
2017-03-29T05:35:48.936Z,1014.43
2017-03-29T05:36:29.524Z,1014.44
2017-03-29T05:37:10.093Z,1014.49
2017-03-29T05:37:50.656Z,1014.5
2017-03-29T05:38:31.239Z,1014.51
2017-03-29T05:39:11.810Z,1014.49
2017-03-29T05:39:52.413Z,1014.55
2017-03-29T05:40:32.993Z,1014.53
2017-03-29T05:41:17.025Z,1014.5
2017-03-29T05:41:57.612Z,1014.52
2017-03-29T05:42:38.206Z,1014.53
2017-03-29T05:43:20.322Z,1014.56
2017-03-29T05:44:00.953Z,1014.54
2017-03-29T05:44:41.537Z,1014.56
2017-03-29T05:45:22.126Z,1014.56
2017-03-29T05:46:02.741Z,1014.52
2017-03-29T05:46:43.298Z,1014.52
2017-03-29T05:47:23.888Z,1014.54
2017-03-29T05:48:04.461Z,1014.51
2017-03-29T05:48:45.061Z,1014.52
2017-03-29T05:49:25.637Z,1014.51
2017-03-29T05:50:06.254Z,1014.53
2017-03-29T05:50:46.844Z,1014.49
2017-03-29T05:51:27.404Z,1014.51
2017-03-29T05:52:07.970Z,1014.5
2017-03-29T05:52:48.541Z,1014.53
2017-03-29T05:53:29.106Z,1014.47
2017-03-29T05:54:09.710Z,1014.52
2017-03-29T05:54:50.286Z,1014.47
2017-03-29T05:55:30.867Z,1014.47
2017-03-29T05:56:11.414Z,1014.5
2017-03-29T05:56:52.005Z,1014.46
2017-03-29T05:57:32.581Z,1014.47
2017-03-29T05:58:13.167Z,1014.51
2017-03-29T05:58:53.744Z,1014.46
2017-03-29T05:59:34.333Z,1014.51
2017-03-29T06:00:14.923Z,1014.53
2017-03-29T06:00:55.501Z,1014.53
2017-03-29T06:01:36.108Z,1014.52
2017-03-29T06:02:16.684Z,1014.56
2017-03-29T06:02:57.264Z,1014.53
2017-03-29T06:03:37.842Z,1014.54
2017-03-29T06:04:18.449Z,1014.5
2017-03-29T06:04:59.094Z,1014.56
2017-03-29T06:05:39.742Z,1014.52
2017-03-29T06:06:20.325Z,1014.51
2017-03-29T06:07:00.913Z,1014.54
2017-03-29T06:07:41.479Z,1014.54
2017-03-29T06:08:22.066Z,1014.5
2017-03-29T06:09:02.644Z,1014.55
2017-03-29T06:09:43.238Z,1014.54
2017-03-29T06:10:23.820Z,1014.5
2017-03-29T06:11:04.569Z,1014.48
2017-03-29T06:11:45.145Z,1014.44
2017-03-29T06:12:25.928Z,1014.47
2017-03-29T06:13:06.507Z,1014.44
2017-03-29T06:13:47.116Z,1014.46
2017-03-29T06:14:27.677Z,1014.42
2017-03-29T06:15:08.471Z,1014.47
2017-03-29T06:15:49.038Z,1014.48
2017-03-29T06:16:29.843Z,1014.45
2017-03-29T06:17:10.411Z,1014.46
2017-03-29T06:17:51.021Z,1014.43
2017-03-29T06:18:31.610Z,1014.46
2017-03-29T06:19:12.182Z,1014.46
2017-03-29T06:19:52.786Z,1014.47
2017-03-29T06:20:33.386Z,1014.5
2017-03-29T06:21:14.224Z,1014.5
2017-03-29T06:21:54.823Z,1014.5
2017-03-29T06:22:35.395Z,1014.51
2017-03-29T06:23:15.999Z,1014.53
2017-03-29T06:23:56.572Z,1014.53
2017-03-29T06:24:37.164Z,1014.53
2017-03-29T06:25:17.755Z,1014.54
2017-03-29T06:25:58.335Z,1014.56
2017-03-29T06:26:38.910Z,1014.56
2017-03-29T06:27:19.669Z,1014.54
2017-03-29T06:28:00.299Z,1014.56
2017-03-29T06:28:41.121Z,1014.54
2017-03-29T06:29:21.707Z,1014.51
2017-03-29T06:30:02.318Z,1014.53
2017-03-29T06:30:43.041Z,1014.58
2017-03-29T06:31:23.639Z,1014.52
2017-03-29T06:32:04.209Z,1014.54
2017-03-29T06:32:44.796Z,1014.52
2017-03-29T06:33:25.390Z,1014.56
2017-03-29T06:34:06.270Z,1014.55
2017-03-29T06:34:46.852Z,1014.56
2017-03-29T06:35:27.421Z,1014.64
2017-03-29T06:36:08.063Z,1014.62
2017-03-29T06:36:48.642Z,1014.54
2017-03-29T06:37:29.233Z,1014.57
2017-03-29T06:38:09.854Z,1014.55
2017-03-29T06:38:50.479Z,1014.53
2017-03-29T06:39:31.119Z,1014.52
2017-03-29T06:40:11.800Z,1014.48
2017-03-29T06:40:52.381Z,1014.58
2017-03-29T06:41:32.939Z,1014.55
2017-03-29T06:42:13.509Z,1014.55
2017-03-29T06:42:54.098Z,1014.63
2017-03-29T06:43:34.692Z,1014.6
2017-03-29T06:44:15.313Z,1014.59
2017-03-29T06:44:55.893Z,1014.59
2017-03-29T06:45:36.488Z,1014.65
2017-03-29T06:46:17.070Z,1014.63
2017-03-29T06:46:57.644Z,1014.61
2017-03-29T06:47:38.222Z,1014.61
2017-03-29T06:48:18.844Z,1014.58
2017-03-29T06:48:59.426Z,1014.58
2017-03-29T06:49:40.039Z,1014.55
2017-03-29T06:50:20.652Z,1014.52
2017-03-29T06:51:01.260Z,1014.54
2017-03-29T06:51:41.873Z,1014.52
2017-03-29T06:52:22.474Z,1014.52
2017-03-29T06:53:03.136Z,1014.51
2017-03-29T06:53:43.751Z,1014.52
2017-03-29T06:54:24.372Z,1014.55
2017-03-29T06:55:04.969Z,1014.5
2017-03-29T06:55:45.586Z,1014.47
2017-03-29T06:56:26.170Z,1014.51
2017-03-29T06:57:06.771Z,1014.5
2017-03-29T06:57:47.361Z,1014.44
2017-03-29T06:58:27.942Z,1014.53
2017-03-29T06:59:08.536Z,1014.51
2017-03-29T06:59:49.122Z,1014.55
2017-03-29T07:00:29.731Z,1014.51
2017-03-29T07:01:10.364Z,1014.54
2017-03-29T07:01:50.960Z,1014.52
2017-03-29T07:02:31.555Z,1014.54
2017-03-29T07:03:12.149Z,1014.54
2017-03-29T07:03:52.796Z,1014.53
2017-03-29T07:04:33.379Z,1014.59
2017-03-29T07:05:14.008Z,1014.61
2017-03-29T07:05:54.552Z,1014.54
2017-03-29T07:06:35.181Z,1014.52
2017-03-29T07:07:15.811Z,1014.57
2017-03-29T07:07:56.384Z,1014.54
2017-03-29T07:08:36.969Z,1014.56
2017-03-29T07:09:17.572Z,1014.5
2017-03-29T07:09:58.163Z,1014.57
2017-03-29T07:10:38.752Z,1014.46
2017-03-29T07:11:19.447Z,1014.51
2017-03-29T07:12:00.024Z,1014.54
2017-03-29T07:12:40.610Z,1014.55
2017-03-29T07:13:21.186Z,1014.53
2017-03-29T07:14:01.791Z,1014.49
2017-03-29T07:14:42.410Z,1014.57
2017-03-29T07:15:22.973Z,1014.54
2017-03-29T07:16:03.557Z,1014.53
2017-03-29T07:16:44.119Z,1014.56
2017-03-29T07:17:24.747Z,1014.6
2017-03-29T07:18:05.341Z,1014.57
2017-03-29T07:18:45.932Z,1014.59
2017-03-29T07:19:26.522Z,1014.57
2017-03-29T07:20:07.107Z,1014.61
2017-03-29T07:20:47.692Z,1014.64
2017-03-29T07:21:28.268Z,1014.63
2017-03-29T07:22:08.883Z,1014.62
2017-03-29T07:22:49.462Z,1014.65
2017-03-29T07:23:30.050Z,1014.65
2017-03-29T07:24:10.632Z,1014.64
2017-03-29T07:24:51.267Z,1014.63
2017-03-29T07:25:31.934Z,1014.59
2017-03-29T07:26:12.566Z,1014.57
2017-03-29T07:26:53.149Z,1014.62
2017-03-29T07:27:33.734Z,1014.69
2017-03-29T07:28:14.313Z,1014.64
2017-03-29T07:28:54.904Z,1014.68
2017-03-29T07:29:35.491Z,1014.66
2017-03-29T07:30:16.065Z,1014.64
2017-03-29T07:30:56.648Z,1014.62
2017-03-29T07:31:37.247Z,1014.67
2017-03-29T07:32:17.856Z,1014.65
2017-03-29T07:32:58.410Z,1014.67
2017-03-29T07:33:39.017Z,1014.68
2017-03-29T07:34:19.598Z,1014.67
2017-03-29T07:35:00.177Z,1014.68
2017-03-29T07:35:40.749Z,1014.68
2017-03-29T07:36:21.329Z,1014.68
2017-03-29T07:37:01.941Z,1014.71
2017-03-29T07:37:42.517Z,1014.71
2017-03-29T07:38:23.125Z,1014.71
2017-03-29T07:39:03.710Z,1014.68
2017-03-29T07:39:44.279Z,1014.68
2017-03-29T07:40:24.849Z,1014.6
2017-03-29T07:41:05.441Z,1014.68
2017-03-29T07:41:46.027Z,1014.74
2017-03-29T07:42:26.606Z,1014.77
2017-03-29T07:43:07.178Z,1014.76
2017-03-29T07:43:47.761Z,1014.84
2017-03-29T07:44:28.338Z,1014.8
2017-03-29T07:45:08.910Z,1014.76
2017-03-29T07:45:49.515Z,1014.77
2017-03-29T07:46:30.088Z,1014.81
2017-03-29T07:47:10.703Z,1014.76
2017-03-29T07:47:51.278Z,1014.8
2017-03-29T07:48:31.859Z,1014.84
2017-03-29T07:49:12.454Z,1014.74
2017-03-29T07:49:53.040Z,1014.76
2017-03-29T07:50:33.684Z,1014.61
2017-03-29T07:51:14.254Z,1014.71
2017-03-29T07:51:54.838Z,1014.74
2017-03-29T07:52:35.426Z,1014.69
2017-03-29T07:53:16.010Z,1014.75
2017-03-29T07:53:56.607Z,1014.69
2017-03-29T07:54:37.201Z,1014.69
2017-03-29T07:55:17.821Z,1014.71
2017-03-29T07:55:58.424Z,1014.66
2017-03-29T07:56:39.048Z,1014.67
2017-03-29T07:57:19.611Z,1014.65
2017-03-29T07:58:00.209Z,1014.7
2017-03-29T07:58:40.780Z,1014.65
2017-03-29T07:59:21.350Z,1014.67
2017-03-29T08:00:01.929Z,1014.62
2017-03-29T08:00:42.534Z,1014.62
2017-03-29T08:01:23.105Z,1014.72
2017-03-29T08:02:03.688Z,1014.83
2017-03-29T08:02:44.338Z,1014.83
2017-03-29T08:03:24.933Z,1014.8
2017-03-29T08:04:05.552Z,1014.9
2017-03-29T08:04:46.117Z,1014.78
2017-03-29T08:05:26.697Z,1014.8
2017-03-29T08:06:07.259Z,1014.85
2017-03-29T08:06:47.843Z,1014.88
2017-03-29T08:07:28.427Z,1014.84
2017-03-29T08:08:08.999Z,1014.86
2017-03-29T08:08:49.621Z,1014.85
2017-03-29T08:09:30.205Z,1014.84
2017-03-29T08:10:10.785Z,1014.84
2017-03-29T08:10:51.423Z,1014.88
2017-03-29T08:11:32.005Z,1014.84
2017-03-29T08:12:12.612Z,1014.86
2017-03-29T08:12:53.212Z,1014.85